Time;durP1;ratioP1;P1;durP2;ratioP2;P2;SDS_P1;SDS_P2;PMS_P1;PMS_P2;Temp;Humidity;BMP_temperature;BMP_pressure;BME280_temperature;BME280_humidity;BME280_pressure;Samples;Min_cycle;Max_cycle;Signal;HPM_P1;HPM_P2
2023/05/26 00:01:52;;;;;;;11.80;10.40;;;;;;;13.40;100.00;96853.84;5011029;28;101977;-59
2023/05/26 00:04:27;;;;;;;10.77;9.67;;;;;;;13.47;100.00;96849.88;5009115;28;103970;-59
2023/05/26 00:06:54;;;;;;;9.70;8.80;;;;;;;13.31;100.00;96850.81;5010875;28;102538;-59
2023/05/26 00:09:23;;;;;;;9.37;8.50;;;;;;;13.34;100.00;96852.19;5010174;28;102107;-59
2023/05/26 00:11:50;;;;;;;10.30;9.30;;;;;;;13.25;100.00;96846.50;5011257;28;102571;-59
2023/05/26 00:14:19;;;;;;;9.70;8.80;;;;;;;13.19;100.00;96839.53;5010933;28;102545;-59
2023/05/26 00:16:46;;;;;;;9.73;8.83;;;;;;;13.17;100.00;96846.16;5014729;28;101768;-59
2023/05/26 00:19:17;;;;;;;9.47;8.63;;;;;;;13.12;100.00;96846.13;5010819;28;102745;-59
2023/05/26 00:21:44;;;;;;;9.93;9.03;;;;;;;12.82;100.00;96843.19;5006392;28;101930;-59
2023/05/26 00:24:11;;;;;;;8.43;7.73;;;;;;;12.71;100.00;96844.16;4991368;28;102354;-59
2023/05/26 00:26:38;;;;;;;8.10;7.33;;;;;;;12.67;100.00;96843.03;5005234;28;105756;-59
2023/05/26 00:29:06;;;;;;;7.33;6.73;;;;;;;12.71;100.00;96844.16;4991171;28;102032;-59
2023/05/26 00:31:34;;;;;;;8.00;7.40;;;;;;;12.67;100.00;96846.50;5009308;28;104863;-59
2023/05/26 00:34:11;;;;;;;9.03;8.13;;;;;;;12.63;100.00;96855.25;5009115;28;105306;-59
2023/05/26 00:36:38;;;;;;;8.80;8.00;;;;;;;12.65;100.00;96845.16;5012399;28;102099;-59
2023/05/26 00:39:05;;;;;;;8.70;8.00;;;;;;;12.64;100.00;96839.00;5010331;28;102525;-59
2023/05/26 00:41:32;;;;;;;8.53;7.73;;;;;;;12.64;100.00;96830.22;5009137;28;102388;-59
2023/05/26 00:44:07;;;;;;;9.43;8.53;;;;;;;12.70;100.00;96843.31;5009655;28;104701;-59
2023/05/26 00:46:36;;;;;;;9.57;8.50;;;;;;;12.69;100.00;96840.91;5010114;28;102454;-59
2023/05/26 00:49:04;;;;;;;9.17;8.27;;;;;;;12.51;100.00;96835.94;5009711;28;101870;-59
2023/05/26 00:51:32;;;;;;;10.73;8.87;;;;;;;12.49;100.00;96840.72;5009187;28;105205;-59
2023/05/26 00:54:12;;;;;;;8.30;7.60;;;;;;;12.50;100.00;96842.31;5010084;28;102737;-59
2023/05/26 00:56:41;;;;;;;8.37;7.67;;;;;;;12.57;100.00;96842.91;5004834;28;102137;-59
2023/05/26 00:59:11;;;;;;;9.27;8.37;;;;;;;12.53;100.00;96849.84;4992314;28;105481;-59
2023/05/26 01:01:41;;;;;;;8.00;7.30;;;;;;;12.50;100.00;96845.00;4989200;28;102053;-59
2023/05/26 01:04:57;;;;;;;8.37;7.60;;;;;;;12.34;100.00;96843.22;4989702;28;104945;-59
2023/05/26 01:07:25;;;;;;;8.27;7.53;;;;;;;12.29;100.00;96835.16;4989974;28;103186;-59
2023/05/26 01:09:52;;;;;;;8.63;7.83;;;;;;;12.29;100.00;96846.63;4999654;28;101896;-59
2023/05/26 01:12:27;;;;;;;9.50;8.70;;;;;;;12.33;100.00;96839.72;5010676;28;102508;-59
2023/05/26 01:15:10;;;;;;;8.60;7.90;;;;;;;12.31;100.00;96841.84;5009721;28;103384;-59
2023/05/26 01:17:45;;;;;;;9.37;8.47;;;;;;;12.33;100.00;96833.59;5009102;28;102150;-59
2023/05/26 01:20:22;;;;;;;8.43;7.73;;;;;;;12.25;100.00;96839.38;5005763;28;105213;-59
2023/05/26 01:23:12;;;;;;;9.00;8.20;;;;;;;12.29;100.00;96835.97;5008962;28;103069;-59
2023/05/26 01:25:51;;;;;;;9.17;8.33;;;;;;;12.19;100.00;96835.03;5008668;28;105584;-59
2023/05/26 01:28:22;;;;;;;9.03;8.20;;;;;;;12.12;100.00;96834.44;5008084;28;105547;-59
2023/05/26 01:30:51;;;;;;;7.67;7.07;;;;;;;12.02;100.00;96840.44;5009010;28;101802;-59
2023/05/26 01:33:27;;;;;;;8.50;7.60;;;;;;;12.10;100.00;96833.88;5010007;28;102350;-59
2023/05/26 01:35:54;;;;;;;9.57;8.77;;;;;;;12.13;100.00;96838.69;5008178;28;105858;-59
2023/05/26 01:38:21;;;;;;;8.63;7.93;;;;;;;12.02;100.00;96844.97;5008933;28;101767;-59
2023/05/26 01:40:54;;;;;;;8.50;7.57;;;;;;;12.04;100.00;96840.22;5008181;28;105612;-59
2023/05/26 01:43:33;;;;;;;8.80;7.63;;;;;;;12.05;100.00;96837.28;5007995;28;106044;-59
2023/05/26 01:46:06;;;;;;;8.87;8.17;;;;;;;11.91;100.00;96835.22;4994856;28;102096;-59
2023/05/26 01:48:36;;;;;;;8.23;7.63;;;;;;;11.62;100.00;96842.56;5008032;28;105571;-59
2023/05/26 01:51:06;;;;;;;8.40;7.70;;;;;;;11.65;100.00;96842.09;5008620;28;101878;-60
2023/05/26 01:53:39;;;;;;;8.53;7.83;;;;;;;11.67;100.00;96845.31;5005016;28;105168;-59
2023/05/26 01:56:08;;;;;;;10.03;8.57;;;;;;;11.62;100.00;96849.78;5004675;28;105919;-59
2023/05/26 01:58:39;;;;;;;9.27;8.33;;;;;;;11.45;100.00;96846.31;5005029;28;102109;-59
2023/05/26 02:01:07;;;;;;;9.27;8.47;;;;;;;11.54;100.00;96848.28;4988474;28;105282;-59
2023/05/26 02:03:42;;;;;;;8.77;7.97;;;;;;;11.58;100.00;96841.44;5007330;28;105406;-59
2023/05/26 02:06:09;;;;;;;8.83;8.03;;;;;;;11.54;100.00;96837.66;4988758;28;101809;-59
2023/05/26 02:08:37;;;;;;;9.73;8.87;;;;;;;11.59;100.00;96842.25;4991228;28;104950;-59
2023/05/26 02:11:04;;;;;;;9.13;8.23;;;;;;;11.61;100.00;96840.16;5007579;28;102198;-59
2023/05/26 02:13:33;;;;;;;8.97;8.17;;;;;;;11.48;100.00;96843.13;5008655;28;105378;-58
2023/05/26 02:16:02;;;;;;;8.57;7.80;;;;;;;11.46;100.00;96839.91;5007460;28;105355;-58
2023/05/26 02:18:29;;;;;;;9.03;8.33;;;;;;;11.42;100.00;96833.47;5008279;28;101884;-58
2023/05/26 02:20:56;;;;;;;8.97;8.10;;;;;;;11.41;100.00;96842.50;4991052;28;105075;-58
2023/05/26 02:23:23;;;;;;;8.90;7.97;;;;;;;11.39;100.00;96840.06;4991045;28;105292;-58
2023/05/26 02:25:50;;;;;;;8.10;7.40;;;;;;;11.42;100.00;96844.13;5005490;28;102062;-59
2023/05/26 02:28:17;;;;;;;7.80;7.17;;;;;;;11.49;100.00;96848.22;4991825;28;103631;-58
2023/05/26 02:30:44;;;;;;;8.53;7.73;;;;;;;11.39;100.00;96844.63;5010610;28;105987;-58
2023/05/26 02:33:12;;;;;;;9.63;8.63;;;;;;;11.43;100.00;96848.38;5011594;28;106035;-58
2023/05/26 02:35:41;;;;;;;9.20;8.40;;;;;;;11.40;100.00;96838.25;5012203;28;103100;-58
2023/05/26 02:38:08;;;;;;;9.63;8.73;;;;;;;11.41;100.00;96843.31;5012071;28;101932;-58
2023/05/26 02:40:35;;;;;;;9.70;8.70;;;;;;;11.42;100.00;96844.13;5011316;28;105588;-58
2023/05/26 02:43:02;;;;;;;8.93;8.20;;;;;;;11.44;100.00;96836.69;5007350;28;103766;-58
2023/05/26 02:45:30;;;;;;;10.63;9.10;;;;;;;11.47;100.00;96842.34;4991545;28;101969;-58
2023/05/26 02:47:57;;;;;;;9.53;8.63;;;;;;;11.46;100.00;96842.59;5001654;28;105028;-58
2023/05/26 02:50:26;;;;;;;9.43;8.53;;;;;;;11.47;100.00;96846.84;5012429;28;104169;-58
2023/05/26 02:52:52;;;;;;;8.90;8.03;;;;;;;11.48;100.00;96853.78;5006692;28;105250;-58
2023/05/26 02:55:26;;;;;;;8.87;8.07;;;;;;;11.47;100.00;96852.19;4993727;28;103165;-58
2023/05/26 02:57:53;;;;;;;9.60;8.70;;;;;;;11.45;100.00;96854.28;5011298;28;101766;-58
2023/05/26 03:00:20;;;;;;;9.90;8.73;;;;;;;11.40;100.00;96844.34;5012359;28;102379;-58
2023/05/26 03:02:47;;;;;;;8.90;8.20;;;;;;;11.33;100.00;96846.38;5007248;28;105694;-58
2023/05/26 03:05:20;;;;;;;8.63;7.83;;;;;;;11.22;100.00;96838.47;5006839;28;101899;-58
2023/05/26 03:07:48;;;;;;;7.80;7.10;;;;;;;11.25;100.00;96838.81;4998017;28;105228;-58
2023/05/26 03:10:16;;;;;;;7.67;7.07;;;;;;;11.25;100.00;96838.00;4990599;28;105400;-58
2023/05/26 03:12:42;;;;;;;9.77;8.87;;;;;;;11.27;100.00;96841.22;5004297;28;101890;-58
2023/05/26 03:15:12;;;;;;;8.27;7.57;;;;;;;11.28;100.00;96843.66;5010403;28;105283;-58
2023/05/26 03:17:39;;;;;;;9.30;8.40;;;;;;;11.30;100.00;96838.09;5007754;28;101859;-58
2023/05/26 03:20:07;;;;;;;11.33;8.67;;;;;;;11.35;100.00;96843.47;5003313;28;104894;-58
2023/05/26 03:22:34;;;;;;;12.93;11.40;;;;;;;11.37;100.00;96839.53;5009786;28;105084;-58
2023/05/26 03:25:06;;;;;;;11.57;10.47;;;;;;;11.32;100.00;96839.44;5009975;28;102001;-58
2023/05/26 03:27:41;;;;;;;10.23;9.23;;;;;;;11.38;100.00;96846.47;5005889;28;104933;-58
2023/05/26 03:30:09;;;;;;;10.53;9.43;;;;;;;11.38;100.00;96835.00;4999124;28;105189;-58
2023/05/26 03:32:40;;;;;;;11.73;10.53;;;;;;;11.34;100.00;96841.88;4999232;28;101989;-58
2023/05/26 03:35:51;;;;;;;11.27;10.00;;;;;;;11.35;100.00;96843.47;5012708;28;105037;-58
2023/05/26 03:38:18;;;;;;;11.00;9.90;;;;;;;11.28;100.00;96840.19;5006106;28;102357;-58
2023/05/26 03:40:47;;;;;;;10.50;9.50;;;;;;;11.34;100.00;96848.00;5009537;28;103468;-58
2023/05/26 03:43:14;;;;;;;12.57;8.80;;;;;;;11.38;100.00;96851.78;5009543;28;105515;-58
2023/05/26 03:45:45;;;;;;;11.13;8.90;;;;;;;11.33;100.00;96850.91;5010485;28;101900;-58
2023/05/26 03:48:15;;;;;;;11.53;9.47;;;;;;;11.29;100.00;96850.56;5009697;28;105420;-58
2023/05/26 03:50:46;;;;;;;11.77;10.57;;;;;;;11.29;100.00;96847.13;5007501;28;104962;-58
2023/05/26 03:53:26;;;;;;;12.77;11.47;;;;;;;11.39;100.00;96850.72;5009295;28;101953;-58
2023/05/26 03:55:56;;;;;;;11.90;10.80;;;;;;;11.35;100.00;96854.13;4991124;28;101643;-58
2023/05/26 03:58:23;;;;;;;11.90;10.70;;;;;;;11.36;100.00;96861.06;5009970;28;105394;-58
2023/05/26 04:00:50;;;;;;;11.20;10.13;;;;;;;11.44;100.00;96858.78;5009244;28;105554;-58
2023/05/26 04:03:19;;;;;;;11.40;10.40;;;;;;;11.40;100.00;96860.31;5005199;28;105684;-58
2023/05/26 04:05:46;;;;;;;11.23;10.13;;;;;;;11.42;100.00;96855.59;4989257;28;102037;-58
2023/05/26 04:08:13;;;;;;;11.07;10.10;;;;;;;11.48;100.00;96859.13;5005394;28;105161;-58
2023/05/26 04:10:40;;;;;;;11.83;10.73;;;;;;;11.55;100.00;96857.91;5008840;28;105188;-58
2023/05/26 04:13:19;;;;;;;12.60;11.30;;;;;;;11.64;100.00;96852.97;5005685;28;101917;-58
2023/05/26 04:15:46;;;;;;;11.63;10.43;;;;;;;11.75;100.00;96846.75;4972481;28;105370;-58
2023/05/26 04:18:13;;;;;;;13.00;10.77;;;;;;;11.81;100.00;96859.91;5002079;28;105598;-58
2023/05/26 04:20:39;;;;;;;10.80;9.90;;;;;;;11.87;100.00;96858.09;5012398;28;101996;-58
2023/05/26 04:23:10;;;;;;;11.40;10.30;;;;;;;11.87;100.00;96860.75;5007265;28;105055;-58
2023/05/26 04:25:37;;;;;;;10.87;9.93;;;;;;;11.96;100.00;96868.09;5008738;28;102097;-58
2023/05/26 04:28:24;;;;;;;11.90;10.70;;;;;;;11.94;100.00;96872.84;5007529;28;104941;-58
2023/05/26 04:31:10;;;;;;;10.90;9.90;;;;;;;12.05;100.00;96881.81;5006715;28;102419;-58
2023/05/26 04:33:56;;;;;;;11.77;10.67;;;;;;;12.20;100.00;96880.13;5008370;28;101724;-58
2023/05/26 04:37:04;;;;;;;11.40;10.30;;;;;;;12.28;100.00;96884.22;4978372;28;102756;-58
2023/05/26 04:39:31;;;;;;;11.27;10.27;;;;;;;12.36;100.00;96883.75;4961112;28;105662;-58
2023/05/26 04:41:59;;;;;;;11.83;10.73;;;;;;;12.39;100.00;96884.09;4986066;28;102002;-58
2023/05/26 04:44:27;;;;;;;12.63;10.83;;;;;;;12.45;100.00;96890.28;5007040;28;105175;-58
2023/05/26 04:46:54;;;;;;;11.50;10.43;;;;;;;12.57;100.00;96890.94;4989985;28;101784;-58
2023/05/26 04:49:22;;;;;;;11.67;10.53;;;;;;;12.64;100.00;96895.03;4988326;28;105279;-58
2023/05/26 04:51:50;;;;;;;12.20;11.10;;;;;;;12.70;100.00;96896.69;4987918;28;105481;-58
2023/05/26 04:54:19;;;;;;;11.70;10.67;;;;;;;12.77;100.00;96891.16;4998675;28;101875;-58
2023/05/26 04:56:46;;;;;;;11.50;10.40;;;;;;;12.90;100.00;96898.75;5004958;28;104838;-58
2023/05/26 04:59:12;;;;;;;12.07;10.87;;;;;;;12.99;100.00;96895.44;4997254;28;103991;-58
2023/05/26 05:01:41;;;;;;;12.77;11.47;;;;;;;13.16;100.00;96897.97;5008132;28;101951;-58
2023/05/26 05:04:24;;;;;;;11.67;10.70;;;;;;;13.33;100.00;96898.66;5009294;28;102384;-58
2023/05/26 05:06:55;;;;;;;12.33;11.10;;;;;;;13.49;100.00;96900.38;5008395;28;101860;-58
2023/05/26 05:09:22;;;;;;;11.37;10.37;;;;;;;13.61;100.00;96898.34;5008300;28;105261;-58
2023/05/26 05:11:49;;;;;;;11.70;10.60;;;;;;;13.68;100.00;96898.94;5007784;28;105416;-58
2023/05/26 05:14:27;;;;;;;10.60;9.50;;;;;;;13.83;100.00;96901.69;5007788;28;103182;-58
2023/05/26 05:16:55;;;;;;;11.30;10.40;;;;;;;13.94;100.00;96895.34;5009098;28;105791;-58
2023/05/26 05:19:22;;;;;;;10.83;9.83;;;;;;;14.11;100.00;96898.66;5007501;28;105435;-58
2023/05/26 05:21:51;;;;;;;12.47;11.37;;;;;;;14.25;100.00;96903.31;5008994;28;102077;-58
2023/05/26 05:24:25;;;;;;;11.33;10.30;;;;;;;14.38;100.00;96894.00;5007798;28;104899;-58
2023/05/26 05:26:52;;;;;;;11.70;10.60;;;;;;;14.50;100.00;96898.03;5010341;28;104461;-58
2023/05/26 05:29:22;;;;;;;11.90;10.80;;;;;;;14.66;100.00;96902.38;5004238;28;104913;-58
2023/05/26 05:31:51;;;;;;;12.53;11.33;;;;;;;14.81;100.00;96898.94;4988610;28;102430;-58
2023/05/26 05:34:20;;;;;;;12.27;11.17;;;;;;;14.92;100.00;96908.59;4987815;28;101892;-58
2023/05/26 05:36:48;;;;;;;11.70;10.50;;;;;;;14.98;100.00;96910.25;4988059;28;104958;-58
2023/05/26 05:39:15;;;;;;;11.63;10.50;;;;;;;14.96;100.00;96912.38;4986630;28;105152;-58
2023/05/26 05:41:41;;;;;;;11.13;10.03;;;;;;;14.79;100.00;96909.94;4992017;28;101917;-58
2023/05/26 05:44:15;;;;;;;10.47;9.57;;;;;;;14.58;100.00;96916.28;5007779;28;105577;-58
2023/05/26 05:46:42;;;;;;;11.37;10.30;;;;;;;14.14;100.00;96916.84;5007643;28;105543;-58
2023/05/26 05:49:25;;;;;;;10.93;9.97;;;;;;;14.30;100.00;96915.91;5011110;28;102042;-59
2023/05/26 05:51:54;;;;;;;10.70;9.77;;;;;;;14.46;100.00;96923.75;5003662;28;105693;-58
2023/05/26 05:54:21;;;;;;;10.87;9.77;;;;;;;14.70;100.00;96916.03;4989493;28;101964;-58
2023/05/26 05:56:48;;;;;;;11.23;9.80;;;;;;;15.04;100.00;96914.53;5012234;28;105437;-58
2023/05/26 05:59:18;;;;;;;10.90;9.73;;;;;;;15.23;100.00;96911.09;5011198;28;105193;-58
2023/05/26 06:01:45;;;;;;;10.20;9.20;;;;;;;15.18;100.00;96910.25;5011952;28;101889;-58
2023/05/26 06:04:36;;;;;;;10.63;9.73;;;;;;;15.16;100.00;96913.19;5012945;28;102363;-58
2023/05/26 06:07:03;;;;;;;10.43;9.43;;;;;;;14.99;100.00;96922.56;5011206;28;105435;-58
2023/05/26 06:09:31;;;;;;;10.10;9.13;;;;;;;14.94;100.00;96914.53;4997321;28;101867;-58
2023/05/26 06:11:58;;;;;;;10.03;9.17;;;;;;;14.96;100.00;96921.22;5007352;28;105306;-60
2023/05/26 06:14:50;;;;;;;11.03;9.90;;;;;;;15.15;100.00;96918.84;5007948;28;103085;-59
2023/05/26 06:17:16;;;;;;;10.13;9.23;;;;;;;15.37;100.00;96920.22;5011327;28;104829;-59
2023/05/26 06:19:47;;;;;;;10.10;9.20;;;;;;;15.26;100.00;96918.56;5011122;28;105798;-58
2023/05/26 06:22:14;;;;;;;11.10;10.20;;;;;;;15.31;100.00;96920.47;5008329;28;102191;-58
2023/05/26 06:24:48;;;;;;;11.77;10.57;;;;;;;15.39;100.00;96925.31;5001310;28;105312;-59
2023/05/26 06:27:16;;;;;;;11.40;10.30;;;;;;;15.50;100.00;96933.13;5010035;28;104827;-59
2023/05/26 06:29:43;;;;;;;11.10;10.00;;;;;;;15.55;100.00;96930.44;5006674;28;102188;-58
2023/05/26 06:32:12;;;;;;;12.77;11.43;;;;;;;15.20;100.00;96934.94;4999944;28;104753;-52
2023/05/26 06:34:42;;;;;;;11.90;10.73;;;;;;;15.43;100.00;96932.56;4993605;28;105147;-51
2023/05/26 06:37:10;;;;;;;11.63;10.57;;;;;;;15.47;100.00;96935.53;4993545;28;105029;-49
2023/05/26 06:39:37;;;;;;;13.20;10.97;;;;;;;15.78;100.00;96937.09;5010735;28;102825;-48
2023/05/26 06:42:13;;;;;;;12.13;10.63;;;;;;;15.86;100.00;96928.53;5009940;28;102681;-51
2023/05/26 06:44:41;;;;;;;11.87;10.87;;;;;;;16.13;100.00;96923.66;5007127;28;105091;-53
2023/05/26 06:47:09;;;;;;;12.60;11.30;;;;;;;16.28;100.00;96924.41;4991586;28;102620;-52
2023/05/26 06:49:42;;;;;;;13.63;11.30;;;;;;;16.51;100.00;96925.72;5009101;28;102075;-52
2023/05/26 06:52:14;;;;;;;13.53;12.13;;;;;;;16.62;100.00;96914.66;5006571;28;104958;-51
2023/05/26 06:54:47;;;;;;;13.40;10.90;;;;;;;16.69;100.00;96919.72;4994556;28;105142;-53
2023/05/26 06:57:15;;;;;;;12.83;11.53;;;;;;;16.96;100.00;96922.81;5013055;28;101950;-48
2023/05/26 06:59:42;;;;;;;12.67;11.37;;;;;;;16.94;100.00;96919.63;5005853;28;105426;-50
2023/05/26 07:02:09;;;;;;;12.47;11.17;;;;;;;17.13;100.00;96923.25;4990314;28;102098;-51
2023/05/26 07:04:37;;;;;;;12.83;11.47;;;;;;;17.10;100.00;96918.41;4997223;28;105650;-50
2023/05/26 07:07:04;;;;;;;13.93;12.17;;;;;;;16.61;100.00;96920.28;5004898;28;105572;-51
2023/05/26 07:09:33;;;;;;;13.07;11.70;;;;;;;16.99;100.00;96922.25;4991612;28;102146;-50
2023/05/26 07:12:02;;;;;;;15.03;13.43;;;;;;;17.30;100.00;96921.78;4996591;28;105324;-51
2023/05/26 07:15:06;;;;;;;14.50;13.00;;;;;;;17.67;100.00;96926.66;5005943;28;105141;-50
2023/05/26 07:17:33;;;;;;;13.47;12.20;;;;;;;18.11;100.00;96927.31;4993490;28;102203;-48
2023/05/26 07:20:00;;;;;;;12.60;11.30;;;;;;;18.16;100.00;96921.88;5005872;28;102532;-49
2023/05/26 07:22:28;;;;;;;14.10;11.63;;;;;;;18.28;100.00;96922.28;5009987;28;101941;-49
2023/05/26 07:25:42;;;;;;;13.13;11.73;;;;;;;18.54;100.00;96916.34;5010140;28;102201;-52
2023/05/26 07:28:09;;;;;;;12.73;11.40;;;;;;;18.64;100.00;96916.22;5008765;28;105821;-53
2023/05/26 07:30:36;;;;;;;13.33;11.13;;;;;;;18.92;100.00;96915.31;5006112;28;101863;-50
2023/05/26 07:33:12;;;;;;;15.60;11.40;;;;;;;19.11;100.00;96918.03;4990447;28;105444;-48
2023/05/26 07:35:39;;;;;;;12.60;11.30;;;;;;;19.20;100.00;96921.69;5005617;28;105856;-48
2023/05/26 07:38:07;;;;;;;12.07;10.77;;;;;;;19.18;100.00;96910.41;4991526;28;102223;-48
2023/05/26 07:40:35;;;;;;;12.20;11.10;;;;;;;19.34;100.00;96911.81;5013135;28;103494;-49
2023/05/26 07:43:05;;;;;;;13.80;11.80;;;;;;;19.42;100.00;96911.13;5010267;28;101899;-50
2023/05/26 07:45:32;;;;;;;11.43;10.33;;;;;;;19.64;100.00;96909.44;4990994;28;101713;-49
2023/05/26 07:47:59;;;;;;;13.00;11.70;;;;;;;19.65;100.00;96911.03;5008672;28;102611;-50
2023/05/26 07:50:26;;;;;;;11.80;10.60;;;;;;;19.69;100.00;96903.97;5010677;28;102054;-52
2023/05/26 07:52:53;;;;;;;11.33;10.13;;;;;;;19.60;100.00;96905.72;5010082;28;102563;-49
2023/05/26 07:55:22;;;;;;;11.93;10.73;;;;;;;19.80;100.00;96904.59;5010281;28;102632;-52
2023/05/26 07:57:48;;;;;;;11.67;10.57;;;;;;;19.88;100.00;96903.88;5010216;28;101854;-50
2023/05/26 08:00:17;;;;;;;11.83;10.63;;;;;;;19.98;100.00;96896.44;5010452;28;102379;-52
2023/05/26 08:02:47;;;;;;;11.83;10.63;;;;;;;20.20;100.00;96898.47;5013145;28;102836;-49
2023/05/26 08:05:30;;;;;;;12.10;10.03;;;;;;;20.46;100.00;96897.72;5005585;28;105586;-52
2023/05/26 08:07:57;;;;;;;11.93;10.80;;;;;;;20.68;100.00;96905.91;4990061;28;102572;-53
2023/05/26 08:10:25;;;;;;;11.23;10.13;;;;;;;20.25;100.00;96901.09;5010512;28;101952;-52
2023/05/26 08:12:53;;;;;;;11.00;9.90;;;;;;;20.73;100.00;96896.88;5008850;28;105524;-50
2023/05/26 08:15:23;;;;;;;13.03;11.83;;;;;;;20.33;100.00;96895.78;5010696;28;102622;-52
2023/05/26 08:17:50;;;;;;;12.57;11.37;;;;;;;20.04;100.00;96895.25;5009796;28;101922;-54
2023/05/26 08:20:17;;;;;;;11.50;10.40;;;;;;;20.57;100.00;96895.59;5008476;28;105567;-53
2023/05/26 08:22:44;;;;;;;12.07;10.93;;;;;;;20.98;100.00;96899.09;5004953;28;104083;-49
2023/05/26 08:25:16;;;;;;;11.60;10.57;;;;;;;21.26;100.00;96895.22;5006971;28;102037;-53
2023/05/26 08:27:43;;;;;;;11.80;10.70;;;;;;;21.29;100.00;96897.28;5006919;28;104260;-49
2023/05/26 08:30:11;;;;;;;11.70;10.57;;;;;;;21.43;100.00;96884.53;5008319;28;102142;-53
2023/05/26 08:32:39;;;;;;;11.53;10.50;;;;;;;21.72;100.00;96893.03;5010110;28;102884;-48
2023/05/26 08:35:10;;;;;;;11.70;10.70;;;;;;;21.80;100.00;96884.97;5007697;28;104221;-48
2023/05/26 08:37:37;;;;;;;10.77;9.77;;;;;;;22.03;100.00;96883.03;5010204;28;101781;-59
2023/05/26 08:40:04;;;;;;;13.30;10.63;;;;;;;22.28;100.00;96883.16;5009278;28;103652;-48
2023/05/26 08:42:34;;;;;;;12.57;11.07;;;;;;;22.19;100.00;96886.94;5009018;28;103473;-51
2023/05/26 08:45:12;;;;;;;11.30;10.30;;;;;;;22.28;100.00;96887.78;5008573;28;101932;-51
2023/05/26 08:47:42;;;;;;;12.03;10.93;;;;;;;21.55;100.00;96887.47;5012656;28;102864;-53
2023/05/26 08:50:10;;;;;;;11.57;10.47;;;;;;;20.96;100.00;96882.34;5010167;28;101818;-52
2023/05/26 08:52:38;;;;;;;12.10;11.00;;;;;;;21.34;100.00;96881.75;5009379;28;102407;-53
2023/05/26 08:55:15;;;;;;;11.20;10.10;;;;;;;21.64;100.00;96888.34;5007516;28;104334;-53
2023/05/26 08:57:42;;;;;;;11.17;10.17;;;;;;;22.02;100.00;96876.03;5008094;28;101952;-47
2023/05/26 09:00:12;;;;;;;10.87;9.73;;;;;;;22.38;100.00;96873.94;5009432;28;102323;-50
2023/05/26 09:02:41;;;;;;;11.70;10.60;;;;;;;21.58;100.00;96876.03;5009827;28;103213;-52
2023/05/26 09:05:23;;;;;;;11.80;10.57;;;;;;;21.23;100.00;96874.16;5009332;28;102275;-51
2023/05/26 09:07:50;;;;;;;10.33;9.30;;;;;;;21.72;100.00;96874.09;5009834;28;102284;-52
2023/05/26 09:10:24;;;;;;;10.27;9.27;;;;;;;21.81;100.00;96869.53;5012338;28;101853;-48
2023/05/26 09:13:02;;;;;;;10.73;9.07;;;;;;;22.37;100.00;96878.59;5008987;28;105634;-47
2023/05/26 09:15:29;;;;;;;10.67;9.60;;;;;;;21.52;100.00;96866.47;5009794;28;103145;-50
2023/05/26 09:18:04;;;;;;;11.77;9.93;;;;;;;21.62;100.00;96872.41;5010371;28;101993;-52
2023/05/26 09:20:31;;;;;;;10.93;9.77;;;;;;;22.29;100.00;96873.13;4988907;28;105474;-49
2023/05/26 09:22:59;;;;;;;10.83;8.90;;;;;;;22.59;100.00;96864.97;4997856;28;105392;-48
2023/05/26 09:25:33;;;;;;;9.60;8.60;;;;;;;22.85;100.00;96865.84;5042035;27;102336;-51
2023/05/26 09:28:01;;;;;;;10.70;9.60;;;;;;;23.08;100.00;96871.91;5010332;28;102958;-49
2023/05/26 09:30:30;;;;;;;8.73;7.93;;;;;;;23.55;100.00;96876.44;5011672;28;105147;-50
2023/05/26 09:32:57;;;;;;;10.13;9.23;;;;;;;23.28;100.00;96866.69;5008746;28;102576;-53
2023/05/26 09:35:27;;;;;;;11.13;9.20;;;;;;;23.67;100.00;96868.44;5004815;28;104817;-49
2023/05/26 09:37:55;;;;;;;9.63;8.80;;;;;;;23.96;100.00;96866.66;4996625;28;102134;-54
2023/05/26 09:40:22;;;;;;;10.93;9.83;;;;;;;22.95;100.00;96868.22;5008398;28;104977;-51
2023/05/26 09:42:54;;;;;;;9.87;9.03;;;;;;;23.58;100.00;96862.19;5007680;28;105881;-49
2023/05/26 09:45:37;;;;;;;9.17;8.27;;;;;;;23.90;100.00;96867.13;5008153;28;102490;-48
2023/05/26 09:48:06;;;;;;;10.17;9.13;;;;;;;24.42;100.00;96868.56;5008291;28;103554;-52
2023/05/26 09:50:35;;;;;;;9.33;8.43;;;;;;;24.34;100.00;96863.94;5008269;28;105730;-48
2023/05/26 09:53:03;;;;;;;10.13;9.10;;;;;;;24.26;100.00;96871.00;5012903;28;103489;-49
2023/05/26 09:55:31;;;;;;;10.37;9.37;;;;;;;23.45;100.00;96866.72;5007869;28;105638;-50
2023/05/26 09:58:05;;;;;;;10.90;9.80;;;;;;;24.29;100.00;96858.69;5009881;28;101866;-47
2023/05/26 10:00:33;;;;;;;11.70;10.53;;;;;;;24.38;100.00;96854.03;5004604;28;105441;-47
2023/05/26 10:03:03;;;;;;;12.27;11.17;;;;;;;22.72;100.00;96864.03;4997964;28;102570;-48
2023/05/26 10:05:30;;;;;;;10.60;9.60;;;;;;;23.09;100.00;96863.47;5004313;28;101916;-49
2023/05/26 10:08:01;;;;;;;11.03;9.83;;;;;;;23.72;100.00;96860.13;5008490;28;103591;-49
2023/05/26 10:10:30;;;;;;;9.77;8.87;;;;;;;23.97;100.00;96851.94;5009319;28;102577;-50
2023/05/26 10:12:57;;;;;;;10.80;9.67;;;;;;;24.33;100.00;96854.22;5008463;28;102342;-51
2023/05/26 10:15:25;;;;;;;10.77;9.77;;;;;;;23.76;100.00;96848.28;5012347;28;102572;-50
2023/05/26 10:17:53;;;;;;;11.27;10.17;;;;;;;22.96;100.00;96856.28;5009982;28;102211;-52
2023/05/26 10:20:22;;;;;;;10.60;9.00;;;;;;;23.16;100.00;96847.50;5008771;28;102651;-50
2023/05/26 10:22:54;;;;;;;10.23;9.20;;;;;;;22.40;100.00;96852.75;5003816;28;105336;-51
2023/05/26 10:26:07;;;;;;;11.03;8.90;;;;;;;23.64;100.00;96852.78;4989866;28;101830;-53
2023/05/26 10:28:42;;;;;;;8.23;7.43;;;;;;;23.65;100.00;96855.16;5006884;28;104060;-52
2023/05/26 10:31:09;;;;;;;11.03;9.33;;;;;;;23.47;100.00;96850.88;5009224;28;102531;-50
2023/05/26 10:33:44;;;;;;;8.83;8.03;;;;;;;24.85;100.00;96850.13;5009344;28;103770;-51
2023/05/26 10:36:15;;;;;;;11.27;10.17;;;;;;;23.88;100.00;96842.19;5009715;28;102693;-49
2023/05/26 10:38:45;;;;;;;9.60;7.30;;;;;;;24.48;100.00;96848.22;5011150;28;102567;-51
2023/05/26 10:41:14;;;;;;;8.27;6.30;;;;;;;25.13;100.00;96843.81;5011206;28;103797;-52
2023/05/26 10:43:55;;;;;;;8.43;6.67;;;;;;;25.59;100.00;96846.38;5010764;28;103449;-48
2023/05/26 10:46:22;;;;;;;6.13;5.33;;;;;;;25.95;100.00;96848.44;4993088;28;102021;-52
2023/05/26 10:48:57;;;;;;;7.47;6.03;;;;;;;26.03;88.60;96842.09;5012412;28;102717;-52
2023/05/26 10:51:27;;;;;;;8.07;7.10;;;;;;;24.94;100.00;96842.69;5011988;28;102815;-52
2023/05/26 10:54:16;;;;;;;9.90;7.57;;;;;;;24.29;100.00;96839.66;5012500;28;101984;-48
2023/05/26 10:56:44;;;;;;;9.67;7.23;;;;;;;24.09;100.00;96837.69;5011121;28;103860;-50
2023/05/26 10:59:24;;;;;;;8.80;7.90;;;;;;;24.84;100.00;96826.78;5011655;28;102678;-49
2023/05/26 11:01:52;;;;;;;9.00;8.10;;;;;;;24.36;100.00;96831.81;5016050;28;102372;-49
2023/05/26 11:04:21;;;;;;;7.90;7.20;;;;;;;24.16;100.00;96829.81;5011961;28;102636;-52
2023/05/26 11:06:50;;;;;;;7.33;6.20;;;;;;;24.53;100.00;96837.16;5012525;28;101760;-52
2023/05/26 11:09:21;;;;;;;10.43;8.17;;;;;;;23.28;100.00;96827.91;5012241;28;102323;-51
2023/05/26 11:11:53;;;;;;;7.47;6.63;;;;;;;24.71;100.00;96825.09;5011920;28;104483;-50
2023/05/26 11:14:26;;;;;;;7.47;5.77;;;;;;;26.05;100.00;96826.22;5012207;28;101985;-50
2023/05/26 11:16:56;;;;;;;9.40;5.70;;;;;;;26.68;100.00;96831.03;5011077;28;105410;-50
2023/05/26 11:19:32;;;;;;;7.30;6.60;;;;;;;26.07;89.79;96824.72;5011289;28;103101;-51
2023/05/26 11:22:00;;;;;;;7.57;6.07;;;;;;;25.78;100.00;96826.78;5014291;28;102003;-49
2023/05/26 11:24:56;;;;;;;7.17;6.30;;;;;;;24.63;89.82;96823.22;5011291;28;102665;-50
2023/05/26 11:27:26;;;;;;;6.20;5.23;;;;;;;24.75;100.00;96821.38;5012159;28;102019;-50